createdAt,value
2023-01-19T00:00:56.222Z,10.00
2023-01-19T00:03:24.656Z,10.00
2023-01-19T00:05:53.102Z,9.90
2023-01-19T00:08:22.947Z,9.90
2023-01-19T00:10:52.166Z,9.90
2023-01-19T00:13:20.663Z,10.00
2023-01-19T00:15:49.105Z,10.00
2023-01-19T00:18:17.495Z,10.00
2023-01-19T00:20:46.481Z,10.00
2023-01-19T00:23:15.201Z,10.00
2023-01-19T00:25:45.017Z,10.00
2023-01-19T00:28:13.993Z,10.00
2023-01-19T00:30:43.201Z,10.00
2023-01-19T00:33:13.794Z,10.00
2023-01-19T00:35:42.704Z,10.00
2023-01-19T00:38:11.330Z,10.00
2023-01-19T00:40:39.715Z,10.00
2023-01-19T00:43:09.450Z,10.10
2023-01-19T00:45:37.862Z,10.10
2023-01-19T00:48:06.518Z,10.10
2023-01-19T00:50:34.934Z,10.20
2023-01-19T00:53:03.558Z,10.20
2023-01-19T00:55:32.454Z,10.30
2023-01-19T00:58:00.805Z,10.20
2023-01-19T01:00:30.700Z,10.10
2023-01-19T01:02:59.481Z,10.10
2023-01-19T01:05:28.144Z,10.10
2023-01-19T01:07:56.573Z,10.10
2023-01-19T01:10:28.028Z,10.10
2023-01-19T01:13:20.397Z,10.10
2023-01-19T01:15:46.371Z,10.10
2023-01-19T01:18:14.752Z,10.10
2023-01-19T01:20:43.118Z,10.10
2023-01-19T01:23:11.455Z,10.10
2023-01-19T01:25:39.854Z,10.00
2023-01-19T01:28:09.442Z,9.90
2023-01-19T01:30:40.139Z,10.00
2023-01-19T01:33:11.507Z,10.00
2023-01-19T01:35:39.863Z,10.00
2023-01-19T01:38:08.238Z,10.00
2023-01-19T01:40:36.567Z,10.00
2023-01-19T01:43:05.023Z,10.10
2023-01-19T01:45:34.121Z,10.20
2023-01-19T01:48:04.507Z,10.10
2023-01-19T01:50:35.335Z,10.20
2023-01-19T01:53:06.726Z,10.20
2023-01-19T01:55:37.972Z,10.20
2023-01-19T01:58:07.206Z,10.20
2023-01-19T02:00:49.516Z,10.30
2023-01-19T02:03:17.947Z,10.20
2023-01-19T02:05:47.718Z,10.10
2023-01-19T02:08:36.210Z,10.10
2023-01-19T02:11:22.110Z,10.10
2023-01-19T02:13:50.849Z,10.10
2023-01-19T02:16:19.375Z,10.00
2023-01-19T02:18:47.909Z,9.90
2023-01-19T02:21:20.495Z,9.90
2023-01-19T02:23:51.818Z,9.90
2023-01-19T02:26:21.697Z,9.80
2023-01-19T02:28:53.401Z,9.90
2023-01-19T02:31:21.739Z,9.90
2023-01-19T02:33:50.206Z,9.90
2023-01-19T02:36:20.680Z,9.90
2023-01-19T02:38:50.602Z,9.90
2023-01-19T02:41:20.787Z,9.80
2023-01-19T02:43:50.009Z,9.90
2023-01-19T02:46:18.440Z,9.90
2023-01-19T02:48:46.918Z,9.90
2023-01-19T02:51:16.985Z,9.90
2023-01-19T02:54:01.295Z,9.90
2023-01-19T02:56:42.306Z,10.00
2023-01-19T02:59:15.819Z,10.00
2023-01-19T03:01:54.408Z,10.00
2023-01-19T03:04:26.991Z,10.00
2023-01-19T03:07:01.074Z,10.00
2023-01-19T03:09:33.700Z,10.00
2023-01-19T03:12:06.394Z,10.00
2023-01-19T03:14:38.018Z,9.90
2023-01-19T03:17:07.400Z,9.90
2023-01-19T03:19:37.628Z,9.90
2023-01-19T03:22:08.519Z,9.90
2023-01-19T03:24:41.228Z,9.80
2023-01-19T03:27:11.863Z,9.80
2023-01-19T03:29:41.539Z,9.70
2023-01-19T03:32:14.466Z,9.70
2023-01-19T03:34:43.952Z,9.70
2023-01-19T03:37:13.277Z,9.70
2023-01-19T03:39:43.170Z,9.70
2023-01-19T03:42:13.039Z,9.70
2023-01-19T03:44:43.253Z,9.80
2023-01-19T03:47:12.605Z,9.80
2023-01-19T03:49:43.104Z,9.80
2023-01-19T03:52:12.345Z,9.80
2023-01-19T03:54:43.280Z,9.80
2023-01-19T03:57:13.089Z,9.90
2023-01-19T03:59:41.408Z,9.80
2023-01-19T04:02:09.886Z,9.80
2023-01-19T04:04:38.389Z,9.90
2023-01-19T04:07:06.936Z,9.80
2023-01-19T04:09:35.358Z,9.80
2023-01-19T04:12:04.128Z,9.80
2023-01-19T04:14:33.831Z,9.70
2023-01-19T04:17:02.207Z,9.70
2023-01-19T04:19:30.653Z,9.70
2023-01-19T04:21:59.014Z,9.60
2023-01-19T04:24:28.085Z,9.60
2023-01-19T04:26:57.383Z,9.60
2023-01-19T04:29:25.799Z,9.60
2023-01-19T04:31:55.580Z,9.50
2023-01-19T04:34:24.005Z,9.50
2023-01-19T04:36:52.359Z,9.50
2023-01-19T04:39:20.818Z,9.60
2023-01-19T04:41:49.113Z,9.60
2023-01-19T04:44:17.645Z,9.60
2023-01-19T04:46:46.116Z,9.50
2023-01-19T04:49:16.385Z,9.50
2023-01-19T04:51:44.708Z,9.40
2023-01-19T04:54:13.165Z,9.40
2023-01-19T04:56:41.938Z,9.30
2023-01-19T04:59:10.304Z,9.40
2023-01-19T05:01:38.687Z,9.40
2023-01-19T05:04:07.891Z,9.40
2023-01-19T05:06:37.600Z,9.40
2023-01-19T05:09:07.938Z,9.30
2023-01-19T05:11:36.368Z,9.20
2023-01-19T05:14:04.811Z,9.20
2023-01-19T05:16:34.674Z,9.10
2023-01-19T05:19:03.088Z,9.10
2023-01-19T05:21:31.685Z,9.10
2023-01-19T05:24:01.439Z,9.10
2023-01-19T05:26:29.816Z,9.20
2023-01-19T05:28:58.122Z,9.20
2023-01-19T05:31:26.647Z,9.20
2023-01-19T05:33:54.998Z,9.20
2023-01-19T05:36:23.381Z,9.30
2023-01-19T05:38:51.792Z,9.30
2023-01-19T05:41:21.582Z,9.40
2023-01-19T05:43:49.958Z,9.50
2023-01-19T05:46:18.392Z,9.50
2023-01-19T05:48:46.807Z,9.60
2023-01-19T05:51:15.293Z,9.50
2023-01-19T05:53:43.642Z,9.50
2023-01-19T05:56:12.133Z,9.40
2023-01-19T05:58:41.848Z,9.30
2023-01-19T06:01:11.459Z,9.30
2023-01-19T06:03:41.076Z,9.20
2023-01-19T06:06:09.477Z,9.20
2023-01-19T06:08:37.860Z,9.20
2023-01-19T06:11:07.273Z,9.30
2023-01-19T06:13:36.098Z,9.20
2023-01-19T06:16:06.202Z,9.20
2023-01-19T06:18:34.815Z,9.30
2023-01-19T06:21:05.962Z,9.30
2023-01-19T06:23:35.127Z,9.30
2023-01-19T06:26:04.108Z,9.40
2023-01-19T06:28:32.573Z,9.40
2023-01-19T06:31:01.129Z,9.40
2023-01-19T06:33:31.091Z,9.40
2023-01-19T06:35:59.557Z,9.40
2023-01-19T06:38:29.030Z,9.40
2023-01-19T06:40:58.963Z,9.40
2023-01-19T06:43:27.466Z,9.40
2023-01-19T06:45:56.220Z,9.40
2023-01-19T06:48:24.847Z,9.40
2023-01-19T06:50:54.897Z,9.30
2023-01-19T06:53:25.066Z,9.30
2023-01-19T06:55:53.411Z,9.30
2023-01-19T06:58:21.949Z,9.30
2023-01-19T07:00:50.465Z,9.30
2023-01-19T07:03:20.528Z,9.30
2023-01-19T07:05:52.041Z,9.20
2023-01-19T07:08:22.018Z,9.20
2023-01-19T07:11:22.266Z,9.20
2023-01-19T07:13:39.939Z,9.20
2023-01-19T07:16:09.273Z,9.10
2023-01-19T07:18:37.807Z,9.20
2023-01-19T07:21:06.757Z,9.20
2023-01-19T07:23:38.183Z,9.20
2023-01-19T07:26:06.658Z,9.30
2023-01-19T07:28:35.105Z,9.30
2023-01-19T07:31:04.042Z,9.40
2023-01-19T07:33:33.090Z,9.40
2023-01-19T07:36:01.613Z,9.50
2023-01-19T07:38:29.907Z,9.50
2023-01-19T07:41:02.972Z,9.50
2023-01-19T07:43:31.389Z,9.60
2023-01-19T07:46:00.137Z,9.60
2023-01-19T07:48:28.793Z,9.70
2023-01-19T07:51:00.272Z,9.70
2023-01-19T07:53:28.716Z,9.80
2023-01-19T07:55:57.641Z,9.80
2023-01-19T07:58:27.831Z,9.90
2023-01-19T08:00:56.359Z,9.80
2023-01-19T08:03:24.872Z,10.00
2023-01-19T08:05:54.210Z,10.00
2023-01-19T08:08:22.583Z,10.00
2023-01-19T08:10:51.647Z,10.10
2023-01-19T08:13:20.032Z,10.20
2023-01-19T08:15:52.398Z,10.40
2023-01-19T08:18:21.228Z,10.50
2023-01-19T08:20:49.580Z,10.70
2023-01-19T08:23:18.288Z,10.90
2023-01-19T08:25:47.014Z,11.00
2023-01-19T08:28:16.199Z,11.10
2023-01-19T08:30:45.293Z,11.30
2023-01-19T08:33:15.330Z,11.50
2023-01-19T08:35:44.594Z,11.60
2023-01-19T08:38:13.049Z,11.70
2023-01-19T08:40:42.166Z,11.80
2023-01-19T08:43:11.986Z,11.90
2023-01-19T08:45:41.683Z,12.00
2023-01-19T08:48:10.398Z,12.10
2023-01-19T08:50:40.418Z,12.10
2023-01-19T08:53:08.925Z,12.30
2023-01-19T08:55:37.678Z,12.30
2023-01-19T08:58:06.764Z,12.30
2023-01-19T09:00:35.586Z,12.30
2023-01-19T09:03:04.835Z,12.40
2023-01-19T09:05:35.777Z,12.40
2023-01-19T09:08:06.751Z,12.50
2023-01-19T09:10:37.812Z,12.40
2023-01-19T09:13:08.463Z,12.40
2023-01-19T09:15:37.809Z,12.40
2023-01-19T09:18:07.414Z,12.50
2023-01-19T09:20:36.820Z,12.50
2023-01-19T09:23:06.748Z,12.60
2023-01-19T09:25:35.125Z,12.40
2023-01-19T09:28:03.855Z,12.20
2023-01-19T09:30:33.145Z,12.00
2023-01-19T09:33:06.572Z,12.00
2023-01-19T09:35:35.074Z,12.00
2023-01-19T09:38:03.793Z,11.90
2023-01-19T09:40:34.054Z,11.80
2023-01-19T09:43:07.831Z,11.80
2023-01-19T09:45:37.608Z,11.80
2023-01-19T09:48:06.715Z,11.80
2023-01-19T09:50:36.681Z,11.70
2023-01-19T09:53:07.473Z,11.70
2023-01-19T09:55:39.418Z,11.80
2023-01-19T09:58:11.616Z,11.80
2023-01-19T10:00:40.287Z,11.80
2023-01-19T10:03:13.817Z,12.00
2023-01-19T10:05:45.911Z,12.00
2023-01-19T10:08:18.930Z,12.10
2023-01-19T10:10:50.456Z,12.20
2023-01-19T10:13:25.497Z,12.20
2023-01-19T10:15:59.575Z,12.30
2023-01-19T10:18:34.582Z,12.30
2023-01-19T10:21:05.749Z,12.40
2023-01-19T10:23:40.553Z,12.40
2023-01-19T10:26:14.060Z,12.40
2023-01-19T10:28:43.102Z,12.50
2023-01-19T10:31:12.392Z,12.40
2023-01-19T10:33:40.984Z,12.20
2023-01-19T10:36:17.783Z,12.30
2023-01-19T10:38:47.035Z,12.50
2023-01-19T10:41:18.840Z,12.40
2023-01-19T10:43:47.820Z,12.20
2023-01-19T10:46:21.698Z,12.10
2023-01-19T10:48:51.471Z,12.20
2023-01-19T10:51:19.992Z,12.10
2023-01-19T10:53:55.783Z,12.10
2023-01-19T10:56:26.933Z,12.30
2023-01-19T10:58:55.556Z,12.30
2023-01-19T11:01:25.428Z,12.40
2023-01-19T11:03:54.483Z,12.50
2023-01-19T11:06:27.145Z,12.40
2023-01-19T11:09:10.586Z,12.50
2023-01-19T11:11:47.951Z,12.40
2023-01-19T11:14:19.125Z,12.30
2023-01-19T11:16:49.385Z,12.50
2023-01-19T11:19:22.046Z,12.40
2023-01-19T11:21:50.491Z,12.30
2023-01-19T11:24:18.780Z,12.40
2023-01-19T11:26:51.234Z,12.40
2023-01-19T11:29:30.334Z,12.50
2023-01-19T11:32:10.889Z,12.30
2023-01-19T11:34:39.882Z,12.20
2023-01-19T11:37:26.955Z,12.20
2023-01-19T11:39:57.079Z,12.40
2023-01-19T11:42:27.409Z,12.60
2023-01-19T11:45:01.385Z,12.60
2023-01-19T11:47:31.718Z,12.60
2023-01-19T11:50:00.913Z,12.60
2023-01-19T11:52:33.213Z,12.60
2023-01-19T11:55:04.572Z,12.50
2023-01-19T11:57:34.463Z,12.50
2023-01-19T12:00:05.214Z,12.50
2023-01-19T12:02:44.416Z,12.60
2023-01-19T12:05:14.224Z,12.50
2023-01-19T12:07:43.990Z,12.50
2023-01-19T12:10:19.038Z,12.50
2023-01-19T12:12:51.053Z,12.50
2023-01-19T12:15:22.834Z,12.60
2023-01-19T12:17:52.193Z,12.60
2023-01-19T12:20:24.768Z,12.50
2023-01-19T12:22:57.934Z,12.50
2023-01-19T12:25:31.927Z,12.50
2023-01-19T12:28:01.840Z,12.60
2023-01-19T12:30:30.792Z,12.60
2023-01-19T12:33:14.084Z,12.60
2023-01-19T12:35:55.642Z,12.60
2023-01-19T12:38:25.597Z,12.60
2023-01-19T12:41:16.322Z,12.50
2023-01-19T12:43:46.109Z,12.40
2023-01-19T12:46:20.874Z,12.40
2023-01-19T12:48:49.331Z,12.40
2023-01-19T12:51:23.888Z,12.40
2023-01-19T12:53:53.193Z,12.40
2023-01-19T12:56:27.961Z,12.50
2023-01-19T12:58:57.918Z,12.60
2023-01-19T13:01:27.130Z,12.60
2023-01-19T13:04:03.196Z,12.50
2023-01-19T13:06:50.246Z,12.50
2023-01-19T13:09:30.039Z,12.50
2023-01-19T13:12:13.632Z,12.60
2023-01-19T13:14:44.005Z,12.60
2023-01-19T13:17:27.185Z,12.50
2023-01-19T13:20:01.593Z,12.50
2023-01-19T13:23:02.841Z,12.40
2023-01-19T13:25:33.707Z,12.50
2023-01-19T13:28:02.749Z,12.40
2023-01-19T13:30:35.214Z,12.30
2023-01-19T13:33:05.807Z,12.20
2023-01-19T13:35:34.392Z,12.20
2023-01-19T13:38:03.078Z,12.10
2023-01-19T13:40:34.679Z,12.20
2023-01-19T13:43:03.743Z,12.20
2023-01-19T13:45:35.095Z,12.20
2023-01-19T13:48:05.724Z,12.20
2023-01-19T13:50:35.546Z,12.10
2023-01-19T13:53:06.102Z,12.10
2023-01-19T13:55:34.527Z,12.10
2023-01-19T13:58:03.102Z,12.10
2023-01-19T14:00:33.252Z,12.20
2023-01-19T14:03:03.861Z,12.30
2023-01-19T14:05:33.036Z,12.40
2023-01-19T14:08:05.469Z,12.50
2023-01-19T14:10:34.456Z,12.50
2023-01-19T14:13:03.524Z,12.60
2023-01-19T14:15:33.436Z,12.60
2023-01-19T14:18:25.809Z,12.60
2023-01-19T14:20:55.145Z,12.60
2023-01-19T14:23:47.218Z,12.60
2023-01-19T14:26:33.977Z,12.60
2023-01-19T14:29:08.331Z,12.60
2023-01-19T14:31:43.559Z,12.60
2023-01-19T14:34:26.806Z,12.50
2023-01-19T14:36:56.599Z,12.50
2023-01-19T14:39:26.044Z,12.40
2023-01-19T14:41:54.703Z,12.40
2023-01-19T14:44:27.333Z,12.40
2023-01-19T14:46:56.544Z,12.40
2023-01-19T14:49:28.854Z,12.40
2023-01-19T14:51:58.735Z,12.40
2023-01-19T14:54:30.511Z,12.20
2023-01-19T14:56:58.906Z,12.10
2023-01-19T14:59:27.319Z,12.00
2023-01-19T15:01:55.866Z,12.00
2023-01-19T15:04:25.467Z,11.90
2023-01-19T15:06:53.846Z,11.80
2023-01-19T15:09:24.058Z,11.70
2023-01-19T15:11:52.712Z,11.50
2023-01-19T15:14:22.450Z,11.40
2023-01-19T15:16:51.207Z,11.40
2023-01-19T15:19:19.741Z,11.40
2023-01-19T15:21:48.368Z,11.40
2023-01-19T15:24:18.018Z,11.30
2023-01-19T15:26:47.915Z,11.30
2023-01-19T15:29:21.860Z,11.30
2023-01-19T15:31:50.327Z,11.30
2023-01-19T15:34:18.922Z,11.30
2023-01-19T15:36:47.333Z,11.20
2023-01-19T15:39:15.742Z,11.20
2023-01-19T15:41:44.143Z,11.20
2023-01-19T15:44:14.123Z,11.20
2023-01-19T15:46:42.493Z,11.20
2023-01-19T15:49:10.913Z,11.10
2023-01-19T15:51:39.309Z,11.10
2023-01-19T15:54:11.738Z,11.10
2023-01-19T15:56:41.649Z,11.00
2023-01-19T15:59:10.023Z,11.00
2023-01-19T16:01:40.908Z,11.00
2023-01-19T16:04:11.179Z,10.90
2023-01-19T16:06:39.588Z,10.90
2023-01-19T16:09:08.082Z,10.80
2023-01-19T16:11:37.821Z,10.80
2023-01-19T16:14:06.180Z,10.80
2023-01-19T16:16:34.646Z,10.70
2023-01-19T16:19:04.461Z,10.70
2023-01-19T16:21:32.838Z,10.70
2023-01-19T16:24:01.216Z,10.70
2023-01-19T16:26:30.847Z,10.70
2023-01-19T16:29:00.108Z,10.60
2023-01-19T16:31:28.767Z,10.60
2023-01-19T16:33:57.195Z,10.60
2023-01-19T16:36:28.769Z,10.50
2023-01-19T16:38:59.632Z,10.40
2023-01-19T16:41:28.072Z,10.30
2023-01-19T16:43:57.616Z,10.30
2023-01-19T16:46:27.159Z,10.30
2023-01-19T16:48:59.765Z,10.30
2023-01-19T16:51:29.759Z,10.30
2023-01-19T16:53:58.314Z,10.30
2023-01-19T16:56:26.714Z,10.30
2023-01-19T16:58:55.332Z,10.40
2023-01-19T17:01:24.524Z,10.40
2023-01-19T17:03:53.117Z,10.40
2023-01-19T17:06:22.831Z,10.50
2023-01-19T17:08:53.247Z,10.40
2023-01-19T17:11:22.699Z,10.40
2023-01-19T17:13:54.034Z,10.30
2023-01-19T17:16:22.414Z,10.30
2023-01-19T17:18:50.882Z,10.30
2023-01-19T17:21:20.100Z,10.40
2023-01-19T17:23:49.304Z,10.40
2023-01-19T17:26:19.621Z,10.40
2023-01-19T17:28:48.041Z,10.40
2023-01-19T17:31:18.407Z,10.40
2023-01-19T17:33:47.268Z,10.30
2023-01-19T17:36:16.489Z,10.20
2023-01-19T17:38:44.888Z,10.20
2023-01-19T17:41:13.926Z,10.20
2023-01-19T17:43:43.776Z,10.10
2023-01-19T17:46:12.490Z,10.10
2023-01-19T17:48:40.975Z,10.10
2023-01-19T17:51:10.395Z,10.10
2023-01-19T17:53:39.940Z,10.00
2023-01-19T17:56:14.801Z,10.00
2023-01-19T17:58:45.693Z,10.00
2023-01-19T18:01:15.419Z,10.00
2023-01-19T18:03:44.243Z,10.00
2023-01-19T18:06:12.659Z,10.00
2023-01-19T18:08:41.806Z,10.00
2023-01-19T18:11:10.671Z,10.00
2023-01-19T18:13:39.116Z,10.00
2023-01-19T18:16:09.769Z,10.00
2023-01-19T18:18:38.310Z,10.10
2023-01-19T18:21:08.052Z,10.10
2023-01-19T18:23:36.865Z,10.20
2023-01-19T18:26:06.448Z,10.20
2023-01-19T18:28:35.235Z,10.20
2023-01-19T18:31:04.303Z,10.10
2023-01-19T18:33:34.121Z,10.10
2023-01-19T18:36:02.592Z,10.10
2023-01-19T18:38:31.155Z,10.10
2023-01-19T18:41:03.013Z,10.00
2023-01-19T18:43:31.555Z,10.10
2023-01-19T18:45:59.996Z,10.10
2023-01-19T18:48:28.410Z,10.00
2023-01-19T18:51:03.212Z,10.00
2023-01-19T18:53:31.939Z,10.00
2023-01-19T18:56:01.957Z,10.00
2023-01-19T18:58:32.214Z,10.00
2023-01-19T19:01:01.204Z,9.90
2023-01-19T19:03:30.008Z,9.90
2023-01-19T19:06:02.994Z,9.80
2023-01-19T19:08:31.449Z,9.80
2023-01-19T19:10:59.759Z,9.80
2023-01-19T19:13:28.212Z,9.80
2023-01-19T19:16:03.241Z,9.80
2023-01-19T19:18:32.044Z,9.90
2023-01-19T19:21:04.005Z,10.00
2023-01-19T19:23:32.543Z,10.00
2023-01-19T19:26:04.102Z,10.00
2023-01-19T19:28:33.368Z,10.00
2023-01-19T19:31:05.479Z,9.90
2023-01-19T19:33:34.217Z,9.90
2023-01-19T19:36:04.071Z,9.90
2023-01-19T19:38:32.843Z,9.90
2023-01-19T19:41:05.455Z,9.80
2023-01-19T19:43:34.227Z,9.90
2023-01-19T19:46:03.275Z,9.80
2023-01-19T19:48:31.659Z,9.80
2023-01-19T19:51:17.642Z,9.80
2023-01-19T19:53:47.492Z,9.80
2023-01-19T19:56:16.823Z,9.70
2023-01-19T19:58:45.255Z,9.70
2023-01-19T20:01:14.785Z,9.80
2023-01-19T20:03:43.330Z,9.80
2023-01-19T20:06:13.771Z,9.80
2023-01-19T20:08:43.268Z,9.80
2023-01-19T20:11:12.784Z,9.70
2023-01-19T20:13:45.551Z,9.70
2023-01-19T20:16:15.292Z,9.70
2023-01-19T20:18:44.671Z,9.70
2023-01-19T20:21:15.404Z,9.70
2023-01-19T20:23:44.158Z,9.60
2023-01-19T20:26:13.421Z,9.60
2023-01-19T20:28:42.208Z,9.60
2023-01-19T20:31:15.015Z,9.50
2023-01-19T20:33:43.604Z,9.50
2023-01-19T20:36:12.385Z,9.50
2023-01-19T20:38:42.192Z,9.40
2023-01-19T20:41:11.860Z,9.40
2023-01-19T20:43:40.653Z,9.40
2023-01-19T20:46:09.556Z,9.30
2023-01-19T20:48:39.286Z,9.30
2023-01-19T20:51:08.858Z,9.20
2023-01-19T20:53:37.668Z,9.20
2023-01-19T20:56:08.520Z,9.20
2023-01-19T20:58:36.870Z,9.20
2023-01-19T21:01:10.360Z,9.10
2023-01-19T21:03:38.800Z,9.10
2023-01-19T21:06:07.401Z,9.10
2023-01-19T21:08:36.139Z,9.10
2023-01-19T21:11:04.908Z,9.10
2023-01-19T21:13:34.741Z,9.10
2023-01-19T21:16:03.618Z,9.10
2023-01-19T21:18:32.016Z,9.00
2023-01-19T21:21:00.429Z,9.00
2023-01-19T21:23:29.214Z,8.90
2023-01-19T21:25:58.647Z,8.90
2023-01-19T21:28:27.559Z,8.90
2023-01-19T21:30:57.581Z,8.90
2023-01-19T21:33:26.034Z,8.90
2023-01-19T21:35:54.805Z,8.90
2023-01-19T21:38:23.691Z,8.80
2023-01-19T21:40:52.136Z,8.70
2023-01-19T21:43:20.646Z,8.70
2023-01-19T21:45:49.855Z,8.60
2023-01-19T21:48:19.827Z,8.60
2023-01-19T21:50:57.164Z,8.60
2023-01-19T21:53:25.520Z,8.50
2023-01-19T21:55:53.937Z,8.40
2023-01-19T21:58:22.843Z,8.40
2023-01-19T22:00:51.449Z,8.40
2023-01-19T22:03:21.301Z,8.40
2023-01-19T22:05:49.784Z,8.40
2023-01-19T22:08:18.204Z,8.40
2023-01-19T22:10:46.631Z,8.50
2023-01-19T22:13:15.084Z,8.50
2023-01-19T22:15:43.563Z,8.40
2023-01-19T22:18:11.996Z,8.40
2023-01-19T22:20:42.013Z,8.50
2023-01-19T22:23:10.433Z,8.60
2023-01-19T22:25:38.807Z,8.60
2023-01-19T22:28:07.261Z,8.60
2023-01-19T22:30:35.704Z,8.80
2023-01-19T22:33:04.195Z,8.80
2023-01-19T22:35:32.595Z,8.90
2023-01-19T22:38:02.352Z,8.90
2023-01-19T22:40:30.751Z,9.00
2023-01-19T22:42:59.158Z,9.00
2023-01-19T22:45:27.510Z,9.00
2023-01-19T22:47:55.871Z,9.00
2023-01-19T22:50:24.203Z,9.10
2023-01-19T22:52:56.020Z,9.20
2023-01-19T22:55:25.796Z,9.20
2023-01-19T22:57:54.154Z,9.20
2023-01-19T23:00:22.981Z,9.20
2023-01-19T23:02:51.391Z,9.10
2023-01-19T23:05:19.739Z,8.90
2023-01-19T23:07:48.129Z,8.80
2023-01-19T23:10:16.710Z,8.70
2023-01-19T23:12:46.703Z,8.50
2023-01-19T23:15:15.365Z,8.40
2023-01-19T23:17:47.331Z,8.30
2023-01-19T23:20:15.890Z,8.40
2023-01-19T23:22:44.195Z,8.40
2023-01-19T23:25:12.859Z,8.30
2023-01-19T23:27:41.427Z,8.40
2023-01-19T23:30:12.039Z,8.40
2023-01-19T23:32:40.500Z,8.40
2023-01-19T23:35:11.082Z,8.50
2023-01-19T23:37:39.599Z,8.40
2023-01-19T23:40:09.874Z,8.30
2023-01-19T23:42:38.236Z,8.30
2023-01-19T23:45:07.308Z,8.30
2023-01-19T23:47:37.170Z,8.40
2023-01-19T23:50:05.814Z,8.30
2023-01-19T23:52:34.180Z,8.40
2023-01-19T23:55:02.554Z,8.30
2023-01-19T23:57:31.381Z,8.30
2023-01-19T23:59:59.835Z,8.30
